Time,TemperatureF,DewpointF,PressureIn,WindDirection,WindDirectionDegrees,WindSpeedMPH,WindSpeedGustMPH,Humidity,HourlyPrecipIn,Conditions,Clouds,dailyrainin,SoftwareType,DateUTC
2013-08-10 00:01:00,71.2,71.2,29.83,East,96,0.0,0.0,100,0.00,,CLR,0.00,VWS V14.01,2013-08-10 04:01:00,
2013-08-10 00:06:00,71.2,71.2,29.83,East,96,0.0,0.0,100,0.00,,CLR,0.00,VWS V14.01,2013-08-10 04:06:00,
2013-08-10 00:11:00,71.2,71.2,29.83,East,96,0.0,0.0,100,0.00,,CLR,0.00,VWS V14.01,2013-08-10 04:11:00,
2013-08-10 00:16:00,71.2,71.2,29.83,East,96,0.0,0.0,100,0.00,,CLR,0.00,VWS V14.01,2013-08-10 04:16:00,
2013-08-10 00:21:00,71.1,71.1,29.83,East,96,0.0,0.0,100,0.00,,CLR,0.00,VWS V14.01,2013-08-10 04:21:00,
2013-08-10 00:26:00,71.1,71.1,29.83,East,96,0.0,0.0,100,0.00,,CLR,0.00,VWS V14.01,2013-08-10 04:26:00,
2013-08-10 00:31:00,71.1,71.1,29.83,East,96,0.0,0.0,100,0.00,,CLR,0.00,VWS V14.01,2013-08-10 04:31:00,
2013-08-10 00:36:00,71.1,71.1,29.83,East,96,0.0,0.0,100,0.00,,CLR,0.00,VWS V14.01,2013-08-10 04:36:00,
2013-08-10 00:41:00,71.1,71.1,29.83,East,96,0.0,0.0,100,0.00,,CLR,0.00,VWS V14.01,2013-08-10 04:41:00,
2013-08-10 00:46:00,70.9,70.9,29.83,East,96,0.0,0.0,100,0.00,,CLR,0.00,VWS V14.01,2013-08-10 04:46:00,
2013-08-10 00:51:00,70.9,70.9,29.83,East,96,0.0,0.0,100,0.00,,CLR,0.00,VWS V14.01,2013-08-10 04:51:00,
2013-08-10 00:56:00,70.9,70.9,29.83,East,96,0.0,0.0,100,0.00,,CLR,0.00,VWS V14.01,2013-08-10 04:56:00,
2013-08-10 01:01:00,70.9,70.9,29.83,East,96,0.0,0.0,100,0.00,,CLR,0.00,VWS V14.01,2013-08-10 05:01:00,
2013-08-10 01:06:00,70.9,70.9,29.83,East,96,0.0,0.0,100,0.00,,CLR,0.00,VWS V14.01,2013-08-10 05:06:00,
2013-08-10 01:11:00,70.7,70.7,29.86,East,96,0.0,0.0,100,0.00,,CLR,0.00,VWS V14.01,2013-08-10 05:11:00,
2013-08-10 01:16:00,70.7,70.7,29.86,East,96,0.0,0.0,100,0.00,,CLR,0.00,VWS V14.01,2013-08-10 05:16:00,
2013-08-10 01:21:00,70.7,70.7,29.86,East,96,0.0,0.0,100,0.00,,CLR,0.00,VWS V14.01,2013-08-10 05:21:00,
2013-08-10 01:26:00,70.5,70.5,29.86,East,96,0.0,0.0,100,0.00,,CLR,0.00,VWS V14.01,2013-08-10 05:26:00,
2013-08-10 01:31:00,70.3,70.3,29.86,East,96,0.0,0.0,100,0.00,,CLR,0.00,VWS V14.01,2013-08-10 05:31:00,
2013-08-10 01:36:00,70.2,70.2,29.86,East,96,0.0,0.0,100,0.00,,CLR,0.00,VWS V14.01,2013-08-10 05:36:00,
2013-08-10 01:41:00,70.2,70.2,29.86,East,96,0.0,0.0,100,0.00,,CLR,0.00,VWS V14.01,2013-08-10 05:41:00,
2013-08-10 01:46:00,70.2,70.2,29.86,East,96,0.0,0.0,100,0.00,,CLR,0.00,VWS V14.01,2013-08-10 05:46:00,
2013-08-10 01:51:00,70.3,70.3,29.86,East,96,0.0,0.0,100,0.00,,CLR,0.00,VWS V14.01,2013-08-10 05:51:00,
2013-08-10 01:56:00,70.3,70.3,29.86,East,96,0.0,0.0,100,0.00,,CLR,0.00,VWS V14.01,2013-08-10 05:56:00,
2013-08-10 02:01:00,70.3,70.3,29.86,East,96,0.0,0.0,100,0.00,,CLR,0.00,VWS V14.01,2013-08-10 06:01:00,
2013-08-10 02:06:00,70.5,70.5,29.86,East,96,0.0,0.0,100,0.00,,CLR,0.00,VWS V14.01,2013-08-10 06:06:00,
2013-08-10 02:11:00,70.5,70.5,29.86,East,96,0.0,0.0,100,0.00,,CLR,0.00,VWS V14.01,2013-08-10 06:11:00,
2013-08-10 02:16:00,70.7,70.7,29.86,East,96,0.0,0.0,100,0.00,,,0.00,VWS V14.01,2013-08-10 06:16:00,
2013-08-10 02:21:00,70.7,70.7,29.86,East,96,0.0,0.0,100,0.00,,,0.00,VWS V14.01,2013-08-10 06:21:00,
2013-08-10 02:26:00,70.7,70.7,29.86,East,96,0.0,0.0,100,0.00,,,0.00,VWS V14.01,2013-08-10 06:26:00,
2013-08-10 02:31:00,70.7,70.7,29.86,East,96,0.0,0.0,100,0.00,,,0.00,VWS V14.01,2013-08-10 06:31:00,
2013-08-10 02:36:00,70.7,70.7,29.86,East,96,0.0,0.0,100,0.00,,,0.00,VWS V14.01,2013-08-10 06:36:00,
2013-08-10 02:41:00,70.5,70.5,29.86,East,96,0.0,0.0,100,0.00,,,0.00,VWS V14.01,2013-08-10 06:41:00,
2013-08-10 02:46:00,70.5,70.5,29.86,East,96,0.0,0.0,100,0.00,,,0.00,VWS V14.01,2013-08-10 06:46:00,
2013-08-10 02:51:00,70.3,70.3,29.86,East,96,0.0,0.0,100,0.00,,,0.00,VWS V14.01,2013-08-10 06:51:00,
2013-08-10 02:56:00,70.3,70.3,29.86,East,96,0.0,0.0,100,0.00,,,0.00,VWS V14.01,2013-08-10 06:56:00,
2013-08-10 03:01:00,70.5,70.5,29.86,East,96,0.0,0.0,100,0.00,,CLR,0.00,VWS V14.01,2013-08-10 07:01:00,
2013-08-10 03:06:00,70.3,70.3,29.86,East,96,0.0,0.0,100,0.00,,CLR,0.00,VWS V14.01,2013-08-10 07:06:00,
2013-08-10 03:11:00,70.5,70.5,29.86,East,96,0.0,0.0,100,0.00,,CLR,0.00,VWS V14.01,2013-08-10 07:11:00,
2013-08-10 03:16:00,70.5,70.5,29.86,East,96,0.0,0.0,100,0.00,,CLR,0.00,VWS V14.01,2013-08-10 07:16:00,
2013-08-10 03:21:00,70.5,70.5,29.86,East,96,0.0,0.0,100,0.00,,CLR,0.00,VWS V14.01,2013-08-10 07:21:00,
2013-08-10 03:26:00,70.5,70.5,29.89,East,96,0.0,0.0,100,0.00,,CLR,0.00,VWS V14.01,2013-08-10 07:26:00,
2013-08-10 03:31:00,70.5,70.5,29.89,East,96,0.0,0.0,100,0.00,,CLR,0.00,VWS V14.01,2013-08-10 07:31:00,
2013-08-10 03:36:00,70.3,70.3,29.89,East,96,0.0,0.0,100,0.00,,CLR,0.00,VWS V14.01,2013-08-10 07:36:00,
2013-08-10 03:41:00,70.3,70.3,29.89,East,96,0.0,0.0,100,0.00,,CLR,0.00,VWS V14.01,2013-08-10 07:41:00,
2013-08-10 03:46:00,70.3,70.3,29.89,East,96,0.0,0.0,100,0.00,,CLR,0.00,VWS V14.01,2013-08-10 07:46:00,
2013-08-10 03:51:00,70.3,70.3,29.89,East,96,0.0,0.0,100,0.00,,CLR,0.00,VWS V14.01,2013-08-10 07:51:00,
2013-08-10 03:56:00,70.3,70.3,29.89,East,96,0.0,0.0,100,0.00,,CLR,0.00,VWS V14.01,2013-08-10 07:56:00,
2013-08-10 04:01:00,70.0,70.0,29.89,East,96,0.0,0.0,100,0.00,,CLR,0.00,VWS V14.01,2013-08-10 08:01:00,
2013-08-10 04:06:00,69.6,69.6,29.89,East,96,0.0,0.0,100,0.00,,CLR,0.00,VWS V14.01,2013-08-10 08:06:00,
2013-08-10 04:11:00,69.3,69.3,29.89,East,96,0.0,0.0,100,0.00,,CLR,0.00,VWS V14.01,2013-08-10 08:11:00,
2013-08-10 04:16:00,69.1,69.1,29.89,East,96,0.0,0.0,100,0.00,,CLR,0.00,VWS V14.01,2013-08-10 08:16:00,
2013-08-10 04:21:00,69.1,69.1,29.89,East,96,0.0,0.0,100,0.00,,CLR,0.00,VWS V14.01,2013-08-10 08:21:00,
2013-08-10 04:26:00,69.1,69.1,29.89,East,96,0.0,0.0,100,0.00,,CLR,0.00,VWS V14.01,2013-08-10 08:26:00,
2013-08-10 04:31:00,69.1,69.1,29.89,East,96,0.0,0.0,100,0.00,,CLR,0.00,VWS V14.01,2013-08-10 08:31:00,
2013-08-10 04:36:00,69.1,69.1,29.89,East,96,0.0,0.0,100,0.00,,CLR,0.00,VWS V14.01,2013-08-10 08:36:00,
2013-08-10 04:41:00,68.9,68.9,29.89,East,96,0.0,0.0,100,0.00,,CLR,0.00,VWS V14.01,2013-08-10 08:41:00,
2013-08-10 04:46:00,68.7,68.7,29.89,East,96,0.0,0.0,100,0.00,,CLR,0.00,VWS V14.01,2013-08-10 08:46:00,
2013-08-10 04:51:00,68.5,68.5,29.89,East,96,0.0,0.0,100,0.00,,CLR,0.00,VWS V14.01,2013-08-10 08:51:00,
2013-08-10 04:56:00,68.4,68.4,29.89,East,96,0.0,0.0,100,0.00,,CLR,0.00,VWS V14.01,2013-08-10 08:56:00,
2013-08-10 05:01:00,68.2,68.2,29.89,East,96,0.0,0.0,100,0.00,,CLR,0.00,VWS V14.01,2013-08-10 09:01:00,
2013-08-10 05:06:00,68.2,68.2,29.89,East,96,0.0,0.0,100,0.00,,CLR,0.00,VWS V14.01,2013-08-10 09:06:00,
2013-08-10 05:11:00,68.0,68.0,29.92,East,96,0.0,0.0,100,0.00,,CLR,0.00,VWS V14.01,2013-08-10 09:11:00,
2013-08-10 05:16:00,67.8,67.8,29.92,East,96,0.0,0.0,100,0.00,,CLR,0.00,VWS V14.01,2013-08-10 09:16:00,
2013-08-10 05:21:00,67.8,67.8,29.92,East,96,0.0,0.0,100,0.00,,CLR,0.00,VWS V14.01,2013-08-10 09:21:00,
2013-08-10 05:26:00,67.6,67.6,29.92,East,96,0.0,0.0,100,0.00,,CLR,0.00,VWS V14.01,2013-08-10 09:26:00,
2013-08-10 05:31:00,67.5,67.5,29.92,East,96,0.0,0.0,100,0.00,,CLR,0.00,VWS V14.01,2013-08-10 09:31:00,
2013-08-10 05:37:00,67.1,67.1,29.92,East,96,0.0,0.0,100,0.00,,CLR,0.00,VWS V14.01,2013-08-10 09:37:00,
2013-08-10 05:42:00,66.9,66.9,29.92,East,96,0.0,0.0,100,0.00,,CLR,0.00,VWS V14.01,2013-08-10 09:42:00,
2013-08-10 05:47:00,66.9,66.9,29.92,East,96,0.0,0.0,100,0.00,,CLR,0.00,VWS V14.01,2013-08-10 09:47:00,
2013-08-10 05:52:00,66.6,66.6,29.92,East,96,0.0,0.0,100,0.00,,CLR,0.00,VWS V14.01,2013-08-10 09:52:00,
2013-08-10 05:57:00,66.6,66.6,29.92,East,96,0.0,0.0,100,0.00,,CLR,0.00,VWS V14.01,2013-08-10 09:57:00,
2013-08-10 06:02:00,66.4,66.4,29.92,East,96,0.0,0.0,100,0.00,,SCT014,0.00,VWS V14.01,2013-08-10 10:02:00,
2013-08-10 06:07:00,66.2,66.2,29.92,East,96,0.0,0.0,100,0.00,,SCT014,0.00,VWS V14.01,2013-08-10 10:07:00,
2013-08-10 06:12:00,66.0,66.0,29.92,East,96,0.0,0.0,100,0.00,,SCT014,0.00,VWS V14.01,2013-08-10 10:12:00,
2013-08-10 06:17:00,66.0,66.0,29.92,East,96,0.0,0.0,100,0.00,,SCT014,0.00,VWS V14.01,2013-08-10 10:17:00,
2013-08-10 06:22:00,65.8,65.8,29.92,East,96,0.0,0.0,100,0.00,,BKN017,0.00,VWS V14.01,2013-08-10 10:22:00,
2013-08-10 06:27:00,65.8,65.8,29.95,East,96,0.0,0.0,100,0.00,,BKN017,0.00,VWS V14.01,2013-08-10 10:27:00,
2013-08-10 06:32:00,65.8,65.8,29.95,East,96,0.0,0.0,100,0.00,,BKN017,0.00,VWS V14.01,2013-08-10 10:32:00,
2013-08-10 06:37:00,65.7,65.7,29.95,East,96,0.0,0.0,100,0.00,,BKN017,0.00,VWS V14.01,2013-08-10 10:37:00,
2013-08-10 06:42:00,65.7,65.7,29.95,East,96,0.0,0.0,100,0.00,,BKN017,0.00,VWS V14.01,2013-08-10 10:42:00,
2013-08-10 06:47:00,65.5,65.5,29.95,East,96,0.0,0.0,100,0.00,,BKN017,0.00,VWS V14.01,2013-08-10 10:47:00,
2013-08-10 06:52:00,65.5,65.5,29.95,East,96,0.0,0.0,100,0.00,,BKN017,0.00,VWS V14.01,2013-08-10 10:52:00,
2013-08-10 06:57:00,65.3,65.3,29.95,East,96,0.0,0.0,100,0.00,,BKN017,0.00,VWS V14.01,2013-08-10 10:57:00,
2013-08-10 07:02:00,65.3,65.3,29.95,East,96,0.0,0.0,100,0.00,,BKN016,0.00,VWS V14.01,2013-08-10 11:02:00,
2013-08-10 07:07:00,65.3,65.3,29.95,East,96,0.0,0.0,100,0.00,,BKN016,0.00,VWS V14.01,2013-08-10 11:07:00,
2013-08-10 07:12:00,65.5,65.5,29.95,East,96,0.0,0.0,100,0.00,,BKN016,0.00,VWS V14.01,2013-08-10 11:12:00,
2013-08-10 07:17:00,65.5,65.5,29.95,East,96,0.0,0.0,100,0.00,,BKN016,0.00,VWS V14.01,2013-08-10 11:17:00,
2013-08-10 07:22:00,65.5,65.5,29.95,East,96,0.0,0.0,100,0.00,,BKN016,0.00,VWS V14.01,2013-08-10 11:22:00,
2013-08-10 07:27:00,65.5,65.5,29.95,East,96,0.0,0.0,100,0.00,,BKN014,0.00,VWS V14.01,2013-08-10 11:27:00,
2013-08-10 07:32:00,65.7,65.7,29.95,East,96,0.0,0.0,100,0.00,,BKN014,0.00,VWS V14.01,2013-08-10 11:32:00,
2013-08-10 07:37:00,65.8,65.8,29.95,East,96,0.0,0.0,100,0.00,,SCT013,0.00,VWS V14.01,2013-08-10 11:37:00,
2013-08-10 07:42:00,66.0,66.0,29.95,East,96,0.0,0.0,100,0.00,,SCT013,0.00,VWS V14.01,2013-08-10 11:42:00,
2013-08-10 07:47:00,66.2,66.2,29.95,East,96,0.0,0.0,100,0.00,,SCT013,0.00,VWS V14.01,2013-08-10 11:47:00,
2013-08-10 07:52:00,66.4,66.4,29.95,East,96,0.0,0.0,100,0.00,,SCT013,0.00,VWS V14.01,2013-08-10 11:52:00,
2013-08-10 07:57:00,66.6,66.6,29.95,East,96,0.0,0.0,100,0.00,,SCT013,0.00,VWS V14.01,2013-08-10 11:57:00,
2013-08-10 08:02:00,66.7,66.7,29.95,East,96,0.0,0.0,100,0.00,,CLR,0.00,VWS V14.01,2013-08-10 12:02:00,
2013-08-10 08:07:00,66.9,66.9,29.95,East,96,0.0,0.0,100,0.00,,CLR,0.00,VWS V14.01,2013-08-10 12:07:00,
2013-08-10 08:12:00,67.1,67.1,29.95,East,96,0.0,0.0,100,0.00,,CLR,0.00,VWS V14.01,2013-08-10 12:12:00,
2013-08-10 08:17:00,67.3,67.3,29.95,East,96,0.0,0.0,100,0.00,,CLR,0.00,VWS V14.01,2013-08-10 12:17:00,
2013-08-10 08:22:00,67.3,67.3,29.95,East,96,0.0,0.0,100,0.00,,CLR,0.00,VWS V14.01,2013-08-10 12:22:00,
2013-08-10 08:27:00,67.5,67.5,29.95,East,96,0.0,0.0,100,0.00,,CLR,0.00,VWS V14.01,2013-08-10 12:27:00,
2013-08-10 08:32:00,67.8,67.8,29.95,East,96,0.0,0.0,100,0.00,,CLR,0.00,VWS V14.01,2013-08-10 12:32:00,
2013-08-10 08:37:00,68.0,68.0,29.95,East,96,0.0,0.0,100,0.00,,CLR,0.00,VWS V14.01,2013-08-10 12:37:00,
2013-08-10 08:42:00,68.2,68.2,29.95,East,96,0.0,0.0,100,0.00,,CLR,0.00,VWS V14.01,2013-08-10 12:42:00,
2013-08-10 08:47:00,68.5,68.5,29.95,East,96,0.0,0.0,100,0.00,,CLR,0.00,VWS V14.01,2013-08-10 12:47:00,
2013-08-10 08:52:00,68.9,68.9,29.95,East,96,0.0,0.0,100,0.00,,CLR,0.00,VWS V14.01,2013-08-10 12:52:00,
2013-08-10 08:57:00,68.9,68.9,29.95,East,96,0.0,0.0,100,0.00,,CLR,0.00,VWS V14.01,2013-08-10 12:57:00,
2013-08-10 09:02:00,69.1,69.1,29.95,East,96,0.0,0.0,100,0.00,,CLR,0.00,VWS V14.01,2013-08-10 13:02:00,
2013-08-10 09:07:00,69.3,69.3,29.95,East,96,0.0,0.0,100,0.00,,CLR,0.00,VWS V14.01,2013-08-10 13:07:00,
2013-08-10 09:12:00,69.1,69.1,29.95,East,96,0.0,0.0,100,0.00,,CLR,0.00,VWS V14.01,2013-08-10 13:12:00,
2013-08-10 09:17:00,69.3,69.3,29.95,East,96,0.0,0.0,100,0.00,,FEW001,0.00,VWS V14.01,2013-08-10 13:17:00,
2013-08-10 09:22:00,69.1,69.1,29.95,East,96,0.0,0.0,100,0.00,,FEW001,0.00,VWS V14.01,2013-08-10 13:22:00,
2013-08-10 09:27:00,69.4,69.4,29.98,East,96,0.0,0.0,100,0.00,,FEW001,0.00,VWS V14.01,2013-08-10 13:27:00,
2013-08-10 09:32:00,69.8,69.8,29.98,East,96,0.0,0.0,100,0.00,,FEW001,0.00,VWS V14.01,2013-08-10 13:32:00,
2013-08-10 09:37:00,70.0,70.0,29.98,East,96,0.0,0.0,100,0.00,,FEW001,0.00,VWS V14.01,2013-08-10 13:37:00,
2013-08-10 09:42:00,69.6,69.6,29.95,East,96,0.0,0.0,100,0.00,,FEW001,0.00,VWS V14.01,2013-08-10 13:42:00,
2013-08-10 09:47:00,69.4,69.4,29.95,East,96,0.0,0.0,100,0.00,,FEW001,0.00,VWS V14.01,2013-08-10 13:47:00,
2013-08-10 09:52:00,70.0,70.0,29.95,East,96,0.0,0.0,100,0.00,,FEW001,0.00,VWS V14.01,2013-08-10 13:52:00,
2013-08-10 09:57:00,70.0,70.0,29.98,East,96,0.0,0.0,100,0.00,,FEW001,0.00,VWS V14.01,2013-08-10 13:57:00,
2013-08-10 10:02:00,70.0,69.1,29.98,East,96,0.0,0.0,97,0.00,,CLR,0.00,VWS V14.01,2013-08-10 14:02:00,
2013-08-10 10:07:00,69.4,67.7,29.98,East,96,0.0,0.0,94,0.00,,CLR,0.00,VWS V14.01,2013-08-10 14:07:00,
2013-08-10 10:12:00,69.8,68.3,29.98,East,96,0.0,0.0,95,0.00,,CLR,0.00,VWS V14.01,2013-08-10 14:12:00,
2013-08-10 10:17:00,69.8,68.3,29.98,East,96,0.0,0.0,95,0.00,,CLR,0.00,VWS V14.01,2013-08-10 14:17:00,
2013-08-10 10:22:00,69.6,67.7,29.98,East,96,0.0,0.0,94,0.00,,CLR,0.00,VWS V14.01,2013-08-10 14:22:00,
2013-08-10 10:27:00,69.8,67.9,29.98,East,96,0.0,0.0,94,0.00,,CLR,0.00,VWS V14.01,2013-08-10 14:27:00,
2013-08-10 10:32:00,70.0,67.8,29.98,East,96,0.0,0.0,93,0.00,,CLR,0.00,VWS V14.01,2013-08-10 14:32:00,
2013-08-10 10:37:00,69.8,66.6,29.98,East,96,0.0,0.0,90,0.00,,CLR,0.00,VWS V14.01,2013-08-10 14:37:00,
2013-08-10 10:42:00,69.4,64.9,29.95,East,96,0.0,0.0,86,0.00,,CLR,0.00,VWS V14.01,2013-08-10 14:42:00,
2013-08-10 10:47:00,69.8,64.6,29.95,East,96,0.0,0.0,83,0.00,,CLR,0.00,VWS V14.01,2013-08-10 14:47:00,
2013-08-10 10:52:00,70.2,64.2,29.95,East,96,0.0,0.0,81,0.00,,CLR,0.00,VWS V14.01,2013-08-10 14:52:00,
2013-08-10 10:57:00,70.3,63.7,29.95,East,96,0.0,0.0,79,0.00,,CLR,0.00,VWS V14.01,2013-08-10 14:57:00,
2013-08-10 11:02:00,71.2,65.5,29.95,East,96,0.0,0.0,82,0.00,,CLR,0.00,VWS V14.01,2013-08-10 15:02:00,
2013-08-10 11:07:00,71.6,66.3,29.95,East,96,0.0,0.0,83,0.00,,CLR,0.00,VWS V14.01,2013-08-10 15:07:00,
2013-08-10 11:12:00,71.4,64.7,29.95,East,96,0.0,0.0,79,0.00,,CLR,0.00,VWS V14.01,2013-08-10 15:12:00,
2013-08-10 11:17:00,72.0,65.5,29.95,East,96,0.0,0.0,80,0.00,,CLR,0.00,VWS V14.01,2013-08-10 15:17:00,
2013-08-10 11:22:00,72.3,66.6,29.95,East,96,0.0,0.0,82,0.00,,CLR,0.00,VWS V14.01,2013-08-10 15:22:00,
2013-08-10 11:27:00,72.5,65.8,29.95,East,96,0.0,0.0,79,0.00,,CLR,0.00,VWS V14.01,2013-08-10 15:27:00,
2013-08-10 11:32:00,72.7,66.2,29.95,East,96,0.0,0.0,80,0.00,,CLR,0.00,VWS V14.01,2013-08-10 15:32:00,
2013-08-10 11:37:00,72.9,66.6,29.95,East,96,0.0,0.0,81,0.00,,CLR,0.00,VWS V14.01,2013-08-10 15:37:00,
2013-08-10 11:42:00,73.2,67.4,29.95,East,96,0.0,0.0,82,0.00,,CLR,0.00,VWS V14.01,2013-08-10 15:42:00,
2013-08-10 11:47:00,73.0,65.6,29.95,East,96,0.0,0.0,77,0.00,,CLR,0.00,VWS V14.01,2013-08-10 15:47:00,
2013-08-10 11:52:00,73.2,66.7,29.95,East,96,0.0,0.0,80,0.00,,CLR,0.00,VWS V14.01,2013-08-10 15:52:00,
2013-08-10 11:57:00,73.0,66.6,29.95,East,96,0.0,0.0,80,0.00,,CLR,0.00,VWS V14.01,2013-08-10 15:57:00,
2013-08-10 12:02:00,73.0,67.0,29.95,East,96,0.0,0.0,81,0.00,,FEW046,0.00,VWS V14.01,2013-08-10 16:02:00,
2013-08-10 12:07:00,72.9,66.6,29.95,East,96,0.0,0.0,81,0.00,,FEW046,0.00,VWS V14.01,2013-08-10 16:07:00,
2013-08-10 12:12:00,72.9,66.9,29.95,East,96,0.0,0.0,81,0.00,,FEW046,0.00,VWS V14.01,2013-08-10 16:12:00,
2013-08-10 12:17:00,73.2,67.0,29.95,East,96,0.0,0.0,81,0.00,,FEW046,0.00,VWS V14.01,2013-08-10 16:17:00,
2013-08-10 12:22:00,73.6,66.8,29.95,East,96,0.0,0.0,79,0.00,,FEW046,0.00,VWS V14.01,2013-08-10 16:22:00,
2013-08-10 12:27:00,73.9,66.2,29.95,East,96,0.0,0.0,77,0.00,,FEW046,0.00,VWS V14.01,2013-08-10 16:27:00,
2013-08-10 12:32:00,74.5,68.2,29.95,East,96,0.0,0.0,81,0.00,,FEW046,0.00,VWS V14.01,2013-08-10 16:32:00,
2013-08-10 12:37:00,74.5,66.9,29.95,East,96,0.0,0.0,77,0.00,,FEW046,0.00,VWS V14.01,2013-08-10 16:37:00,
2013-08-10 12:42:00,74.7,65.8,29.95,East,96,0.0,0.0,74,0.00,,FEW046,0.00,VWS V14.01,2013-08-10 16:42:00,
2013-08-10 12:47:00,75.0,66.7,29.95,ESE,112,0.0,0.0,75,0.00,,FEW046,0.00,VWS V14.01,2013-08-10 16:47:00,
2013-08-10 12:52:00,75.4,66.0,29.95,East,81,0.0,0.0,73,0.00,,FEW046,0.00,VWS V14.01,2013-08-10 16:52:00,
2013-08-10 12:57:00,75.4,64.9,29.95,East,81,0.0,0.0,70,0.00,,FEW046,0.00,VWS V14.01,2013-08-10 16:57:00,
2013-08-10 13:02:00,75.4,65.2,29.95,East,81,0.0,0.0,71,0.00,,SCT044,0.00,VWS V14.01,2013-08-10 17:02:00,
2013-08-10 13:07:00,75.2,65.0,29.95,East,81,0.0,0.0,71,0.00,,SCT044,0.00,VWS V14.01,2013-08-10 17:07:00,
2013-08-10 13:12:00,75.2,65.8,29.95,East,81,0.0,0.0,73,0.00,,SCT044,0.00,VWS V14.01,2013-08-10 17:12:00,
2013-08-10 13:17:00,75.2,66.1,29.95,East,81,0.0,0.0,73,0.00,,SCT044,0.00,VWS V14.01,2013-08-10 17:17:00,
2013-08-10 13:22:00,75.0,65.9,29.95,East,81,0.0,0.0,73,0.00,,SCT044,0.00,VWS V14.01,2013-08-10 17:22:00,
2013-08-10 13:27:00,74.8,64.9,29.95,East,81,0.0,0.0,71,0.00,,SCT044,0.00,VWS V14.01,2013-08-10 17:27:00,
2013-08-10 13:32:00,74.8,64.9,29.95,East,81,0.0,0.0,71,0.00,,SCT044,0.00,VWS V14.01,2013-08-10 17:32:00,
2013-08-10 13:37:00,74.8,65.2,29.95,East,81,0.0,0.0,72,0.00,,SCT044,0.00,VWS V14.01,2013-08-10 17:37:00,
2013-08-10 13:42:00,75.0,65.9,29.95,East,81,0.0,0.0,73,0.00,,SCT044,0.00,VWS V14.01,2013-08-10 17:42:00,
2013-08-10 13:47:00,75.4,66.8,29.95,ESE,106,0.0,0.0,75,0.00,,SCT044,0.00,VWS V14.01,2013-08-10 17:47:00,
2013-08-10 13:52:00,75.6,65.9,29.95,South,172,0.0,0.0,72,0.00,,SCT044,0.00,VWS V14.01,2013-08-10 17:52:00,
2013-08-10 13:57:00,75.9,66.0,29.95,South,187,0.0,0.0,71,0.00,,SCT044,0.00,VWS V14.01,2013-08-10 17:57:00,
2013-08-10 14:02:00,76.1,66.4,29.95,ESE,119,0.0,0.0,72,0.00,,FEW046,0.00,VWS V14.01,2013-08-10 18:02:00,
2013-08-10 14:07:00,76.3,66.6,29.95,East,94,0.0,0.0,72,0.00,,FEW046,0.00,VWS V14.01,2013-08-10 18:07:00,
2013-08-10 14:12:00,76.8,66.6,29.95,South,183,0.0,0.0,71,0.00,,FEW046,0.00,VWS V14.01,2013-08-10 18:12:00,
2013-08-10 14:17:00,77.0,66.7,29.95,East,94,0.0,0.0,71,0.00,,FEW046,0.00,VWS V14.01,2013-08-10 18:17:00,
2013-08-10 14:22:00,77.0,66.5,29.95,East,99,0.0,0.0,70,0.00,,FEW046,0.00,VWS V14.01,2013-08-10 18:22:00,
2013-08-10 14:27:00,76.8,67.4,29.95,East,99,0.0,0.0,73,0.00,,FEW046,0.00,VWS V14.01,2013-08-10 18:27:00,
2013-08-10 14:32:00,76.8,66.6,29.95,SSE,148,0.0,0.0,71,0.00,,FEW046,0.00,VWS V14.01,2013-08-10 18:32:00,
2013-08-10 14:37:00,76.5,66.5,29.95,SSE,148,0.0,0.0,71,0.00,,FEW046,0.00,VWS V14.01,2013-08-10 18:37:00,
2013-08-10 14:42:00,76.5,64.2,29.95,SSE,148,0.0,0.0,66,0.00,,FEW046,0.00,VWS V14.01,2013-08-10 18:42:00,
2013-08-10 14:47:00,76.3,64.1,29.95,SSE,148,0.0,0.0,66,0.00,,FEW046,0.00,VWS V14.01,2013-08-10 18:47:00,
2013-08-10 14:52:00,75.9,64.3,29.95,SSE,148,0.0,0.0,67,0.00,,FEW046,0.00,VWS V14.01,2013-08-10 18:52:00,
2013-08-10 14:57:00,75.9,65.7,29.95,SSE,148,0.0,0.0,71,0.00,,FEW046,0.00,VWS V14.01,2013-08-10 18:57:00,
2013-08-10 15:02:00,75.6,65.1,29.95,SSE,148,0.0,0.0,70,0.00,,FEW050,0.00,VWS V14.01,2013-08-10 19:02:00,
2013-08-10 15:07:00,75.6,65.1,29.95,SSE,148,0.0,0.0,70,0.00,,FEW050,0.00,VWS V14.01,2013-08-10 19:07:00,
2013-08-10 15:12:00,75.4,64.1,29.95,SSE,148,0.0,0.0,68,0.00,,FEW050,0.00,VWS V14.01,2013-08-10 19:12:00,
2013-08-10 15:17:00,75.6,64.8,29.95,SSE,148,0.0,0.0,69,0.00,,FEW050,0.00,VWS V14.01,2013-08-10 19:17:00,
2013-08-10 15:22:00,75.7,65.2,29.95,SSE,148,0.0,0.0,70,0.00,,FEW050,0.00,VWS V14.01,2013-08-10 19:22:00,
2013-08-10 15:27:00,75.9,65.7,29.95,SSE,148,0.0,0.0,71,0.00,,FEW050,0.00,VWS V14.01,2013-08-10 19:27:00,
2013-08-10 15:32:00,75.9,66.0,29.95,SSE,148,0.0,0.0,71,0.00,,FEW050,0.00,VWS V14.01,2013-08-10 19:32:00,
2013-08-10 15:37:00,75.9,66.0,29.95,SSE,148,0.0,0.0,71,0.00,,FEW050,0.00,VWS V14.01,2013-08-10 19:37:00,
2013-08-10 15:42:00,76.1,65.9,29.95,SSE,148,0.0,0.0,71,0.00,,FEW050,0.00,VWS V14.01,2013-08-10 19:42:00,
2013-08-10 15:47:00,76.3,66.1,29.95,SSE,148,0.0,0.0,71,0.00,,FEW050,0.00,VWS V14.01,2013-08-10 19:47:00,
2013-08-10 15:52:00,76.5,66.2,29.95,SSE,148,0.0,0.0,71,0.00,,FEW050,0.00,VWS V14.01,2013-08-10 19:52:00,
2013-08-10 15:57:00,76.5,65.4,29.95,ENE,76,0.0,0.0,69,0.00,,FEW050,0.00,VWS V14.01,2013-08-10 19:57:00,
2013-08-10 16:02:00,76.3,65.8,29.95,ENE,78,0.0,0.0,70,0.00,,FEW060,0.00,VWS V14.01,2013-08-10 20:02:00,
2013-08-10 16:07:00,76.3,65.8,29.95,ENE,78,0.0,0.0,70,0.00,,FEW060,0.00,VWS V14.01,2013-08-10 20:07:00,
2013-08-10 16:12:00,76.3,65.2,29.95,ENE,78,0.0,0.0,69,0.00,,FEW060,0.00,VWS V14.01,2013-08-10 20:12:00,
2013-08-10 16:17:00,76.3,65.2,29.95,ENE,78,0.0,0.0,69,0.00,,FEW060,0.00,VWS V14.01,2013-08-10 20:17:00,
2013-08-10 16:22:00,76.1,64.8,29.95,ENE,78,0.0,0.0,68,0.00,,FEW060,0.00,VWS V14.01,2013-08-10 20:22:00,
2013-08-10 16:27:00,75.9,64.0,29.95,ENE,78,0.0,0.0,67,0.00,,FEW060,0.00,VWS V14.01,2013-08-10 20:27:00,
2013-08-10 16:32:00,76.1,64.5,29.95,ENE,78,0.0,0.0,67,0.00,,FEW060,0.00,VWS V14.01,2013-08-10 20:32:00,
2013-08-10 16:37:00,76.1,65.6,29.95,ENE,78,0.0,0.0,70,0.00,,FEW060,0.00,VWS V14.01,2013-08-10 20:37:00,
2013-08-10 16:42:00,75.9,65.4,29.95,ENE,78,0.0,0.0,70,0.00,,FEW050,0.00,VWS V14.01,2013-08-10 20:42:00,
2013-08-10 16:47:00,76.3,65.2,29.95,ENE,78,0.0,0.0,69,0.00,,FEW050,0.00,VWS V14.01,2013-08-10 20:47:00,
2013-08-10 16:52:00,76.6,65.3,29.95,ENE,78,0.0,0.0,68,0.00,,FEW050,0.00,VWS V14.01,2013-08-10 20:52:00,
2013-08-10 16:57:00,76.5,64.8,29.95,ENE,78,0.0,0.0,67,0.00,,FEW050,0.00,VWS V14.01,2013-08-10 20:57:00,
2013-08-10 17:02:00,76.5,64.8,29.95,ENE,78,0.0,0.0,67,0.00,,CLR,0.00,VWS V14.01,2013-08-10 21:02:00,
2013-08-10 17:07:00,76.3,64.6,29.95,ENE,78,0.0,0.0,67,0.00,,CLR,0.00,VWS V14.01,2013-08-10 21:07:00,
2013-08-10 17:12:00,76.1,65.3,29.95,ENE,78,0.0,0.0,69,0.00,,CLR,0.00,VWS V14.01,2013-08-10 21:12:00,
2013-08-10 17:17:00,75.9,65.2,29.95,ENE,78,0.0,0.0,69,0.00,,CLR,0.00,VWS V14.01,2013-08-10 21:17:00,
2013-08-10 17:22:00,75.7,64.7,29.95,ENE,78,0.0,0.0,69,0.00,,CLR,0.00,VWS V14.01,2013-08-10 21:22:00,
2013-08-10 17:27:00,75.6,64.8,29.95,ENE,78,0.0,0.0,69,0.00,,CLR,0.00,VWS V14.01,2013-08-10 21:27:00,
2013-08-10 17:32:00,75.4,64.9,29.95,ENE,78,0.0,0.0,70,0.00,,CLR,0.00,VWS V14.01,2013-08-10 21:32:00,
2013-08-10 17:37:00,75.4,64.9,29.95,ENE,78,0.0,0.0,70,0.00,,CLR,0.00,VWS V14.01,2013-08-10 21:37:00,
2013-08-10 17:42:00,75.2,64.7,29.95,ENE,78,0.0,0.0,70,0.00,,CLR,0.00,VWS V14.01,2013-08-10 21:42:00,
2013-08-10 17:47:00,75.2,64.7,29.95,ENE,78,0.0,0.0,70,0.00,,CLR,0.00,VWS V14.01,2013-08-10 21:47:00,
2013-08-10 17:52:00,75.0,64.8,29.95,ENE,78,0.0,0.0,71,0.00,,CLR,0.00,VWS V14.01,2013-08-10 21:52:00,
2013-08-10 17:57:00,74.8,64.9,29.95,ENE,78,0.0,0.0,71,0.00,,CLR,0.00,VWS V14.01,2013-08-10 21:57:00,
2013-08-10 18:02:00,74.7,64.8,29.95,ENE,78,0.0,0.0,71,0.00,,CLR,0.00,VWS V14.01,2013-08-10 22:02:00,
2013-08-10 18:07:00,74.5,64.3,29.95,ENE,78,0.0,0.0,71,0.00,,CLR,0.00,VWS V14.01,2013-08-10 22:07:00,
2013-08-10 18:12:00,74.3,64.2,29.95,ENE,78,0.0,0.0,71,0.00,,CLR,0.00,VWS V14.01,2013-08-10 22:12:00,
2013-08-10 18:17:00,74.3,64.2,29.95,ENE,78,0.0,0.0,71,0.00,,CLR,0.00,VWS V14.01,2013-08-10 22:17:00,
2013-08-10 18:22:00,74.3,64.7,29.95,ENE,78,0.0,0.0,72,0.00,,CLR,0.00,VWS V14.01,2013-08-10 22:22:00,
2013-08-10 18:27:00,74.1,65.1,29.95,ENE,78,0.0,0.0,73,0.00,,CLR,0.00,VWS V14.01,2013-08-10 22:27:00,
2013-08-10 18:32:00,73.9,65.1,29.95,ESE,113,0.0,0.0,74,0.00,,CLR,0.00,VWS V14.01,2013-08-10 22:32:00,
2013-08-10 18:37:00,73.9,65.1,29.95,ESE,113,0.0,0.0,74,0.00,,CLR,0.00,VWS V14.01,2013-08-10 22:37:00,
2013-08-10 18:42:00,73.8,65.2,29.95,ESE,113,0.0,0.0,75,0.00,,CLR,0.00,VWS V14.01,2013-08-10 22:42:00,
2013-08-10 18:47:00,73.8,64.4,29.95,ESE,113,0.0,0.0,73,0.00,,CLR,0.00,VWS V14.01,2013-08-10 22:47:00,
2013-08-10 18:52:00,73.8,65.5,29.95,ESE,113,0.0,0.0,75,0.00,,CLR,0.00,VWS V14.01,2013-08-10 22:52:00,
2013-08-10 18:57:00,73.6,65.6,29.95,ESE,113,0.0,0.0,76,0.00,,CLR,0.00,VWS V14.01,2013-08-10 22:57:00,
2013-08-10 19:02:00,73.6,65.8,29.95,ESE,113,0.0,0.0,77,0.00,,CLR,0.00,VWS V14.01,2013-08-10 23:02:00,
2013-08-10 19:07:00,73.2,65.7,29.95,ESE,113,0.0,0.0,77,0.00,,CLR,0.00,VWS V14.01,2013-08-10 23:07:00,
2013-08-10 19:12:00,73.0,65.3,29.95,ESE,113,0.0,0.0,77,0.00,,CLR,0.00,VWS V14.01,2013-08-10 23:12:00,
2013-08-10 19:17:00,72.7,64.2,29.95,ESE,113,0.0,0.0,75,0.00,,CLR,0.00,VWS V14.01,2013-08-10 23:17:00,
2013-08-10 19:22:00,72.5,63.5,29.95,ESE,113,0.0,0.0,73,0.00,,CLR,0.00,VWS V14.01,2013-08-10 23:22:00,
2013-08-10 19:27:00,72.3,63.3,29.95,ESE,113,0.0,0.0,73,0.00,,CLR,0.00,VWS V14.01,2013-08-10 23:27:00,
2013-08-10 19:32:00,72.1,63.4,29.95,ESE,113,0.0,0.0,74,0.00,,CLR,0.00,VWS V14.01,2013-08-10 23:32:00,
2013-08-10 19:37:00,72.0,63.5,29.98,ESE,113,0.0,0.0,75,0.00,,CLR,0.00,VWS V14.01,2013-08-10 23:37:00,
2013-08-10 19:42:00,71.8,63.3,29.98,ESE,113,0.0,0.0,75,0.00,,CLR,0.00,VWS V14.01,2013-08-10 23:42:00,
2013-08-10 19:47:00,71.6,61.3,29.98,ESE,113,0.0,0.0,70,0.00,,CLR,0.00,VWS V14.01,2013-08-10 23:47:00,
2013-08-10 19:52:00,71.4,61.9,29.98,ESE,113,0.0,0.0,72,0.00,,CLR,0.00,VWS V14.01,2013-08-10 23:52:00,
2013-08-10 19:57:00,71.2,61.8,29.98,ESE,113,0.0,0.0,72,0.00,,CLR,0.00,VWS V14.01,2013-08-10 23:57:00,
2013-08-10 20:02:00,71.1,62.1,29.98,ESE,113,0.0,0.0,73,0.00,,CLR,0.00,VWS V14.01,2013-08-11 00:02:00,
2013-08-10 20:07:00,70.9,62.5,29.98,ESE,113,0.0,0.0,75,0.00,,CLR,0.00,VWS V14.01,2013-08-11 00:07:00,
2013-08-10 20:12:00,70.7,61.8,29.98,ESE,113,0.0,0.0,73,0.00,,CLR,0.00,VWS V14.01,2013-08-11 00:12:00,
2013-08-10 20:17:00,70.5,61.8,29.98,ESE,113,0.0,0.0,74,0.00,,CLR,0.00,VWS V14.01,2013-08-11 00:17:00,
2013-08-10 20:22:00,70.5,62.1,29.98,ESE,113,0.0,0.0,75,0.00,,CLR,0.00,VWS V14.01,2013-08-11 00:22:00,
2013-08-10 20:27:00,70.3,62.2,30.01,ESE,113,0.0,0.0,75,0.00,,CLR,0.00,VWS V14.01,2013-08-11 00:27:00,
2013-08-10 20:32:00,70.2,62.3,30.01,ESE,113,0.0,0.0,76,0.00,,CLR,0.00,VWS V14.01,2013-08-11 00:32:00,
2013-08-10 20:37:00,70.0,62.1,30.01,ESE,113,0.0,0.0,76,0.00,,CLR,0.00,VWS V14.01,2013-08-11 00:37:00,
2013-08-10 20:42:00,69.8,62.4,30.01,ESE,113,0.0,0.0,77,0.00,,CLR,0.00,VWS V14.01,2013-08-11 00:42:00,
2013-08-10 20:47:00,69.8,63.4,30.01,ESE,113,0.0,0.0,80,0.00,,CLR,0.00,VWS V14.01,2013-08-11 00:47:00,
2013-08-10 20:52:00,69.4,62.6,30.01,ESE,113,0.0,0.0,79,0.00,,CLR,0.00,VWS V14.01,2013-08-11 00:52:00,
2013-08-10 20:57:00,69.4,63.3,30.01,ESE,113,0.0,0.0,81,0.00,,CLR,0.00,VWS V14.01,2013-08-11 00:57:00,
2013-08-10 21:02:00,69.1,62.9,30.01,ESE,113,0.0,0.0,81,0.00,,CLR,0.00,VWS V14.01,2013-08-11 01:02:00,
2013-08-10 21:07:00,68.9,63.5,30.01,ESE,113,0.0,0.0,83,0.00,,CLR,0.00,VWS V14.01,2013-08-11 01:07:00,
2013-08-10 21:12:00,68.7,63.5,30.01,ESE,113,0.0,0.0,83,0.00,,CLR,0.00,VWS V14.01,2013-08-11 01:12:00,
2013-08-10 21:17:00,68.5,63.6,30.01,ESE,113,0.0,0.0,84,0.00,,CLR,0.00,VWS V14.01,2013-08-11 01:17:00,
2013-08-10 21:22:00,68.5,63.3,30.01,ESE,113,0.0,0.0,83,0.00,,CLR,0.00,VWS V14.01,2013-08-11 01:22:00,
2013-08-10 21:27:00,68.4,62.9,30.03,ESE,113,0.0,0.0,83,0.00,,CLR,0.00,VWS V14.01,2013-08-11 01:27:00,
2013-08-10 21:32:00,68.2,62.8,30.03,ESE,113,0.0,0.0,83,0.00,,CLR,0.00,VWS V14.01,2013-08-11 01:32:00,
2013-08-10 21:37:00,67.8,62.4,30.03,ESE,113,0.0,0.0,83,0.00,,CLR,0.00,VWS V14.01,2013-08-11 01:37:00,
2013-08-10 21:42:00,67.5,62.1,30.03,ESE,113,0.0,0.0,83,0.00,,CLR,0.00,VWS V14.01,2013-08-11 01:42:00,
2013-08-10 21:47:00,67.1,61.2,30.03,ESE,113,0.0,0.0,81,0.00,,CLR,0.00,VWS V14.01,2013-08-11 01:47:00,
2013-08-10 21:52:00,67.1,61.5,30.03,ESE,113,0.0,0.0,82,0.00,,CLR,0.00,VWS V14.01,2013-08-11 01:52:00,
2013-08-10 21:57:00,66.9,60.1,30.03,ESE,113,0.0,0.0,79,0.00,,CLR,0.00,VWS V14.01,2013-08-11 01:57:00,
2013-08-10 22:02:00,66.9,60.6,30.03,ESE,113,0.0,0.0,80,0.00,,CLR,0.00,VWS V14.01,2013-08-11 02:02:00,
2013-08-10 22:07:00,66.7,60.9,30.03,ESE,113,0.0,0.0,81,0.00,,CLR,0.00,VWS V14.01,2013-08-11 02:07:00,
2013-08-10 22:12:00,66.6,60.5,30.03,ESE,113,0.0,0.0,81,0.00,,CLR,0.00,VWS V14.01,2013-08-11 02:12:00,
2013-08-10 22:17:00,66.6,61.0,30.03,ESE,113,0.0,0.0,82,0.00,,CLR,0.00,VWS V14.01,2013-08-11 02:17:00,
2013-08-10 22:22:00,66.6,61.0,30.03,ESE,113,0.0,0.0,82,0.00,,CLR,0.00,VWS V14.01,2013-08-11 02:22:00,
2013-08-10 22:27:00,66.6,61.2,30.03,ESE,113,0.0,0.0,83,0.00,,CLR,0.00,VWS V14.01,2013-08-11 02:27:00,
2013-08-10 22:32:00,66.6,61.9,30.03,ESE,113,0.0,0.0,85,0.00,,CLR,0.00,VWS V14.01,2013-08-11 02:32:00,
2013-08-10 22:37:00,66.4,61.7,30.03,ESE,113,0.0,0.0,85,0.00,,CLR,0.00,VWS V14.01,2013-08-11 02:37:00,
2013-08-10 22:42:00,66.2,61.5,30.03,ESE,113,0.0,0.0,85,0.00,,CLR,0.00,VWS V14.01,2013-08-11 02:42:00,
2013-08-10 22:47:00,65.8,60.9,30.03,ESE,113,0.0,0.0,84,0.00,,CLR,0.00,VWS V14.01,2013-08-11 02:47:00,
2013-08-10 22:52:00,65.7,60.5,30.03,ESE,113,0.0,0.0,83,0.00,,CLR,0.00,VWS V14.01,2013-08-11 02:52:00,
2013-08-10 22:57:00,65.5,60.8,30.03,ESE,113,0.0,0.0,85,0.00,,CLR,0.00,VWS V14.01,2013-08-11 02:57:00,
2013-08-10 23:02:00,65.3,60.8,30.03,ESE,113,0.0,0.0,86,0.00,,CLR,0.00,VWS V14.01,2013-08-11 03:02:00,
2013-08-10 23:07:00,65.1,61.1,30.03,ESE,113,0.0,0.0,87,0.00,,CLR,0.00,VWS V14.01,2013-08-11 03:07:00,
2013-08-10 23:12:00,65.1,60.9,30.03,ESE,113,0.0,0.0,86,0.00,,CLR,0.00,VWS V14.01,2013-08-11 03:12:00,
2013-08-10 23:17:00,64.9,60.0,30.03,ESE,113,0.0,0.0,84,0.00,,CLR,0.00,VWS V14.01,2013-08-11 03:17:00,
2013-08-10 23:22:00,65.1,60.5,30.03,ESE,113,0.0,0.0,85,0.00,,CLR,0.00,VWS V14.01,2013-08-11 03:22:00,
2013-08-10 23:27:00,65.1,57.4,30.03,ESE,113,0.0,0.0,76,0.00,,CLR,0.00,VWS V14.01,2013-08-11 03:27:00,
2013-08-10 23:33:00,65.3,58.1,30.03,ESE,113,0.0,0.0,77,0.00,,CLR,0.00,VWS V14.01,2013-08-11 03:33:00,
2013-08-10 23:38:00,65.3,57.8,30.03,ESE,113,0.0,0.0,77,0.00,,CLR,0.00,VWS V14.01,2013-08-11 03:38:00,
2013-08-10 23:43:00,64.8,57.3,30.03,ESE,113,0.0,0.0,77,0.00,,CLR,0.00,VWS V14.01,2013-08-11 03:43:00,
2013-08-10 23:48:00,64.8,57.3,30.03,ESE,113,0.0,0.0,77,0.00,,CLR,0.00,VWS V14.01,2013-08-11 03:48:00,
2013-08-10 23:53:00,64.4,56.5,30.03,ESE,113,0.0,0.0,75,0.00,,CLR,0.00,VWS V14.01,2013-08-11 03:53:00,
2013-08-10 23:58:00,64.4,56.9,30.03,ESE,113,0.0,0.0,77,0.00,,CLR,0.00,VWS V14.01,2013-08-11 03:58:00,